Miwa Maru No.3 — JD4170 — position and weather

sailwx.info

Track history (hours):
 
Tides and Currents Weather Stations Pressure Air Temp Water Temp Dewpoint Dewpoint Depression Visibility Wind Speed Wind Dir Waves Ship Positions

Miwa Maru No.3

Last reported at 2017-Oct-18 03:57 UTC. Time now 2017-Oct-18 18:28 UTC.
Position N 34°37' E 134°55'.

Length 62 m; draft 3.5 m.

Type: Cargo ship. MMSI: 431009245.

Date/timePositionNaut miles runAvg speedWind from/ knotsBaromVisibWave heightAir tempDewpointWater temp
2017-Oct-18 03:57N 34°37' E 134°55'510.5
2017-Oct-18 03:28N 34°37' E 135°01'4 9.6
2017-Oct-18 03:00N 34°36' E 135°06'612.2
2017-Oct-18 02:30N 34°35' E 135°14'612.7
2017-Oct-18 02:00N 34°34' E 135°21'4 0.2
2017-Oct-17 08:24N 34°33' E 135°26'3 8.3
2017-Oct-17 08:00N 34°33' E 135°22'510.5
2017-Oct-17 07:29N 34°34' E 135°16'511.0
2017-Oct-17 07:01N 34°34' E 135°09'611.1
2017-Oct-17 06:30N 34°36' E 135°03'  
Track history (hours):
 
Tides and Currents Weather Stations Pressure Air Temp Water Temp Dewpoint Dewpoint Depression Visibility Wind Speed Wind Dir Waves Ship Positions

Miwa Maru No.3

Last reported at 2017-Oct-18 03:57 UTC. Time now 2017-Oct-18 18:28 UTC.
Position N 34°37' E 134°55'.

Length 62 m; draft 3.5 m.

Type: Cargo ship. MMSI: 431009245.

Date/timePositionNaut miles runAvg speedWind from/ knotsBaromVisibWave heightAir tempDewpointWater temp
2017-Oct-18 03:57N 34°37' E 134°55'510.5
2017-Oct-18 03:28N 34°37' E 135°01'4 9.6
2017-Oct-18 03:00N 34°36' E 135°06'612.2
2017-Oct-18 02:30N 34°35' E 135°14'612.7
2017-Oct-18 02:00N 34°34' E 135°21'4 0.2
2017-Oct-17 08:24N 34°33' E 135°26'3 8.3
2017-Oct-17 08:00N 34°33' E 135°22'510.5
2017-Oct-17 07:29N 34°34' E 135°16'511.0
2017-Oct-17 07:01N 34°34' E 135°09'611.1
2017-Oct-17 06:30N 34°36' E 135°03'  

Dump ship's entire track history